sensor_id;sensor_type;location;lat;lon;timestamp;pressure;altitude;pressure_sealevel;temperature;humidity
34712;BME280;20941;42.408;25.634;2022-11-20T00:02:25;99072.09;;;16.32;100.00
34712;BME280;20941;42.408;25.634;2022-11-20T00:04:50;99085.31;;;16.40;100.00
34712;BME280;20941;42.408;25.634;2022-11-20T00:07:16;99114.72;;;16.48;100.00
34712;BME280;20941;42.408;25.634;2022-11-20T00:09:41;99091.25;;;16.35;100.00
34712;BME280;20941;42.408;25.634;2022-11-20T00:12:07;99118.47;;;16.36;100.00
34712;BME280;20941;42.408;25.634;2022-11-20T00:14:35;99110.38;;;16.38;100.00
34712;BME280;20941;42.408;25.634;2022-11-20T00:17:01;99102.50;;;16.31;100.00
34712;BME280;20941;42.408;25.634;2022-11-20T00:19:26;99062.63;;;16.12;100.00
34712;BME280;20941;42.408;25.634;2022-11-20T00:21:52;99114.66;;;16.32;100.00
34712;BME280;20941;42.408;25.634;2022-11-20T00:24:19;99112.25;;;16.46;100.00
34712;BME280;20941;42.408;25.634;2022-11-20T00:26:44;99090.06;;;16.36;100.00
34712;BME280;20941;42.408;25.634;2022-11-20T00:29:10;99091.91;;;16.73;100.00
34712;BME280;20941;42.408;25.634;2022-11-20T00:31:36;99087.91;;;16.90;100.00
34712;BME280;20941;42.408;25.634;2022-11-20T00:34:01;99103.44;;;17.08;100.00
34712;BME280;20941;42.408;25.634;2022-11-20T00:36:28;99093.63;;;17.22;100.00
34712;BME280;20941;42.408;25.634;2022-11-20T00:38:55;99090.97;;;17.29;100.00
34712;BME280;20941;42.408;25.634;2022-11-20T00:41:22;99092.97;;;17.28;100.00
34712;BME280;20941;42.408;25.634;2022-11-20T00:43:55;99096.97;;;17.43;100.00
34712;BME280;20941;42.408;25.634;2022-11-20T00:46:22;99099.47;;;17.45;100.00
34712;BME280;20941;42.408;25.634;2022-11-20T00:48:48;99102.31;;;17.45;100.00
34712;BME280;20941;42.408;25.634;2022-11-20T00:51:16;99086.66;;;17.35;100.00
34712;BME280;20941;42.408;25.634;2022-11-20T00:53:43;99083.44;;;17.21;100.00
34712;BME280;20941;42.408;25.634;2022-11-20T00:56:13;99099.22;;;17.18;100.00
34712;BME280;20941;42.408;25.634;2022-11-20T00:58:41;99092.34;;;17.19;100.00
34712;BME280;20941;42.408;25.634;2022-11-20T01:01:15;99090.22;;;17.16;100.00
34712;BME280;20941;42.408;25.634;2022-11-20T01:03:45;99098.94;;;17.23;100.00
34712;BME280;20941;42.408;25.634;2022-11-20T01:06:12;99091.59;;;17.22;100.00
34712;BME280;20941;42.408;25.634;2022-11-20T01:08:39;99059.25;;;17.27;100.00
34712;BME280;20941;42.408;25.634;2022-11-20T01:11:08;99071.59;;;17.35;100.00
34712;BME280;20941;42.408;25.634;2022-11-20T01:13:34;99070.97;;;17.25;100.00
34712;BME280;20941;42.408;25.634;2022-11-20T01:16:05;99066.09;;;17.26;100.00
34712;BME280;20941;42.408;25.634;2022-11-20T01:18:31;99075.53;;;17.30;100.00
34712;BME280;20941;42.408;25.634;2022-11-20T01:21:04;99053.56;;;17.27;100.00
34712;BME280;20941;42.408;25.634;2022-11-20T01:23:32;99071.69;;;17.38;100.00
34712;BME280;20941;42.408;25.634;2022-11-20T01:26:00;99058.56;;;17.33;100.00
34712;BME280;20941;42.408;25.634;2022-11-20T01:28:26;99047.13;;;17.30;100.00
34712;BME280;20941;42.408;25.634;2022-11-20T01:30:52;99075.81;;;17.41;100.00
34712;BME280;20941;42.408;25.634;2022-11-20T01:33:17;99043.84;;;17.28;100.00
34712;BME280;20941;42.408;25.634;2022-11-20T01:35:43;99065.91;;;17.35;100.00
34712;BME280;20941;42.408;25.634;2022-11-20T01:38:08;99064.34;;;17.37;100.00
34712;BME280;20941;42.408;25.634;2022-11-20T01:40:34;99076.47;;;17.34;100.00
34712;BME280;20941;42.408;25.634;2022-11-20T01:43:18;99073.63;;;17.34;100.00
34712;BME280;20941;42.408;25.634;2022-11-20T01:46:16;99061.53;;;17.21;100.00
34712;BME280;20941;42.408;25.634;2022-11-20T01:49:19;99053.94;;;17.09;100.00
34712;BME280;20941;42.408;25.634;2022-11-20T01:51:57;99054.94;;;17.17;100.00
34712;BME280;20941;42.408;25.634;2022-11-20T01:54:36;99040.25;;;17.15;100.00
34712;BME280;20941;42.408;25.634;2022-11-20T01:57:06;99036.91;;;17.09;100.00
34712;BME280;20941;42.408;25.634;2022-11-20T01:59:34;99026.63;;;17.05;100.00
34712;BME280;20941;42.408;25.634;2022-11-20T02:02:02;99036.78;;;17.22;100.00
34712;BME280;20941;42.408;25.634;2022-11-20T02:04:28;99018.72;;;17.14;100.00
34712;BME280;20941;42.408;25.634;2022-11-20T02:06:58;99035.25;;;17.08;100.00
34712;BME280;20941;42.408;25.634;2022-11-20T02:09:24;99011.16;;;17.02;100.00
34712;BME280;20941;42.408;25.634;2022-11-20T02:11:51;99007.16;;;16.91;100.00
34712;BME280;20941;42.408;25.634;2022-11-20T02:14:17;98946.19;;;16.52;100.00
34712;BME280;20941;42.408;25.634;2022-11-20T02:16:47;99010.19;;;16.82;100.00
34712;BME280;20941;42.408;25.634;2022-11-20T02:19:23;99006.06;;;16.79;100.00
34712;BME280;20941;42.408;25.634;2022-11-20T02:24:22;98980.25;;;16.52;100.00
34712;BME280;20941;42.408;25.634;2022-11-20T02:26:54;98987.09;;;16.67;100.00
34712;BME280;20941;42.408;25.634;2022-11-20T02:29:44;98996.28;;;16.61;100.00
34712;BME280;20941;42.408;25.634;2022-11-20T02:32:38;99003.59;;;16.62;100.00
34712;BME280;20941;42.408;25.634;2022-11-20T02:35:09;99008.44;;;16.61;100.00
34712;BME280;20941;42.408;25.634;2022-11-20T02:37:37;99010.09;;;16.62;100.00
34712;BME280;20941;42.408;25.634;2022-11-20T02:40:04;99013.03;;;16.66;100.00
34712;BME280;20941;42.408;25.634;2022-11-20T02:42:30;99017.53;;;16.83;100.00
34712;BME280;20941;42.408;25.634;2022-11-20T02:44:56;99030.16;;;16.85;100.00
34712;BME280;20941;42.408;25.634;2022-11-20T02:47:21;98992.88;;;16.71;100.00
34712;BME280;20941;42.408;25.634;2022-11-20T02:49:47;99023.88;;;16.92;100.00
34712;BME280;20941;42.408;25.634;2022-11-20T02:52:12;99017.00;;;16.93;100.00
34712;BME280;20941;42.408;25.634;2022-11-20T02:54:37;99015.97;;;16.85;100.00
34712;BME280;20941;42.408;25.634;2022-11-20T02:57:03;99015.47;;;16.96;100.00
34712;BME280;20941;42.408;25.634;2022-11-20T02:59:28;98994.91;;;16.87;100.00
34712;BME280;20941;42.408;25.634;2022-11-20T03:01:54;99018.91;;;17.05;100.00
34712;BME280;20941;42.408;25.634;2022-11-20T03:04:19;98983.06;;;16.84;100.00
34712;BME280;20941;42.408;25.634;2022-11-20T03:06:45;99014.81;;;17.03;100.00
34712;BME280;20941;42.408;25.634;2022-11-20T03:09:11;99002.63;;;17.02;100.00
34712;BME280;20941;42.408;25.634;2022-11-20T03:11:36;98992.88;;;17.03;100.00
34712;BME280;20941;42.408;25.634;2022-11-20T03:14:04;98997.84;;;17.06;100.00
34712;BME280;20941;42.408;25.634;2022-11-20T03:16:30;98969.81;;;16.89;100.00
34712;BME280;20941;42.408;25.634;2022-11-20T03:18:56;98994.72;;;17.11;100.00
34712;BME280;20941;42.408;25.634;2022-11-20T03:21:22;98993.25;;;17.17;100.00
34712;BME280;20941;42.408;25.634;2022-11-20T03:23:48;99003.63;;;17.10;100.00
34712;BME280;20941;42.408;25.634;2022-11-20T03:26:17;99009.69;;;17.08;100.00
34712;BME280;20941;42.408;25.634;2022-11-20T03:28:52;99011.69;;;17.08;100.00
34712;BME280;20941;42.408;25.634;2022-11-20T03:31:20;98974.84;;;16.95;100.00
34712;BME280;20941;42.408;25.634;2022-11-20T03:33:46;99006.84;;;17.08;100.00
34712;BME280;20941;42.408;25.634;2022-11-20T03:36:14;98989.03;;;17.11;100.00
34712;BME280;20941;42.408;25.634;2022-11-20T03:38:40;98997.94;;;17.10;100.00
34712;BME280;20941;42.408;25.634;2022-11-20T03:41:20;98991.78;;;17.08;100.00
34712;BME280;20941;42.408;25.634;2022-11-20T03:43:49;98985.84;;;16.97;100.00
34712;BME280;20941;42.408;25.634;2022-11-20T03:46:16;98999.13;;;17.09;100.00
34712;BME280;20941;42.408;25.634;2022-11-20T03:48:41;98989.97;;;17.15;100.00
34712;BME280;20941;42.408;25.634;2022-11-20T03:53:38;98996.28;;;17.09;100.00
34712;BME280;20941;42.408;25.634;2022-11-20T03:56:04;98989.78;;;17.08;100.00
34712;BME280;20941;42.408;25.634;2022-11-20T03:58:30;98990.88;;;17.20;100.00
34712;BME280;20941;42.408;25.634;2022-11-20T04:00:56;98968.53;;;17.02;100.00
34712;BME280;20941;42.408;25.634;2022-11-20T04:03:21;98988.75;;;17.16;100.00
34712;BME280;20941;42.408;25.634;2022-11-20T04:05:47;99008.09;;;17.27;100.00
34712;BME280;20941;42.408;25.634;2022-11-20T04:08:12;99004.06;;;17.28;100.00
34712;BME280;20941;42.408;25.634;2022-11-20T04:10:38;98989.97;;;17.15;100.00
34712;BME280;20941;42.408;25.634;2022-11-20T04:13:03;98957.34;;;17.09;100.00
34712;BME280;20941;42.408;25.634;2022-11-20T04:15:29;98984.69;;;17.33;100.00
34712;BME280;20941;42.408;25.634;2022-11-20T04:17:55;98981.31;;;17.28;100.00
34712;BME280;20941;42.408;25.634;2022-11-20T04:20:21;98998.09;;;17.33;100.00
34712;BME280;20941;42.408;25.634;2022-11-20T04:22:46;98995.78;;;17.23;100.00
34712;BME280;20941;42.408;25.634;2022-11-20T04:25:12;98979.50;;;17.20;100.00
34712;BME280;20941;42.408;25.634;2022-11-20T04:27:37;99006.59;;;17.33;100.00
34712;BME280;20941;42.408;25.634;2022-11-20T04:30:03;99013.38;;;17.28;100.00
34712;BME280;20941;42.408;25.634;2022-11-20T04:32:28;98990.22;;;17.10;100.00
34712;BME280;20941;42.408;25.634;2022-11-20T04:34:54;98977.31;;;16.97;100.00
34712;BME280;20941;42.408;25.634;2022-11-20T04:37:19;99032.94;;;17.14;100.00
34712;BME280;20941;42.408;25.634;2022-11-20T04:39:45;99027.44;;;17.21;100.00
34712;BME280;20941;42.408;25.634;2022-11-20T04:42:10;99031.22;;;17.09;100.00
34712;BME280;20941;42.408;25.634;2022-11-20T04:44:54;99018.91;;;17.05;100.00
34712;BME280;20941;42.408;25.634;2022-11-20T04:47:20;99027.91;;;17.07;100.00
34712;BME280;20941;42.408;25.634;2022-11-20T04:49:46;99036.06;;;17.09;100.00
34712;BME280;20941;42.408;25.634;2022-11-20T04:52:12;99032.75;;;17.07;100.00
34712;BME280;20941;42.408;25.634;2022-11-20T04:54:37;99005.28;;;16.95;100.00
34712;BME280;20941;42.408;25.634;2022-11-20T04:57:03;99031.13;;;17.06;100.00
34712;BME280;20941;42.408;25.634;2022-11-20T04:59:28;99028.63;;;17.04;100.00
34712;BME280;20941;42.408;25.634;2022-11-20T05:01:54;99019.66;;;17.02;100.00
34712;BME280;20941;42.408;25.634;2022-11-20T05:04:19;99006.72;;;16.89;100.00
34712;BME280;20941;42.408;25.634;2022-11-20T05:06:45;99023.41;;;16.90;100.00
34712;BME280;20941;42.408;25.634;2022-11-20T05:09:12;99023.03;;;16.76;100.00
34712;BME280;20941;42.408;25.634;2022-11-20T05:11:37;99027.88;;;16.75;100.00
34712;BME280;20941;42.408;25.634;2022-11-20T05:14:03;99001.19;;;16.64;100.00
34712;BME280;20941;42.408;25.634;2022-11-20T05:16:28;99022.91;;;16.72;100.00
34712;BME280;20941;42.408;25.634;2022-11-20T05:18:54;99043.19;;;16.87;100.00
34712;BME280;20941;42.408;25.634;2022-11-20T05:21:20;99017.25;;;16.72;100.00
34712;BME280;20941;42.408;25.634;2022-11-20T05:23:46;99017.34;;;16.76;100.00
34712;BME280;20941;42.408;25.634;2022-11-20T05:26:21;99032.53;;;16.83;100.00
34712;BME280;20941;42.408;25.634;2022-11-20T05:28:47;99029.06;;;16.74;100.00
34712;BME280;20941;42.408;25.634;2022-11-20T05:31:15;99041.91;;;16.84;100.00
34712;BME280;20941;42.408;25.634;2022-11-20T05:33:42;99032.91;;;16.82;100.00
34712;BME280;20941;42.408;25.634;2022-11-20T05:36:09;99034.94;;;16.81;100.00
34712;BME280;20941;42.408;25.634;2022-11-20T05:38:35;99027.69;;;16.68;100.00
34712;BME280;20941;42.408;25.634;2022-11-20T05:41:18;99046.38;;;16.69;100.00
34712;BME280;20941;42.408;25.634;2022-11-20T05:43:45;99046.00;;;16.71;100.00
34712;BME280;20941;42.408;25.634;2022-11-20T05:46:14;99046.63;;;16.64;100.00
34712;BME280;20941;42.408;25.634;2022-11-20T05:48:41;99041.22;;;16.59;100.00
34712;BME280;20941;42.408;25.634;2022-11-20T05:51:09;99041.16;;;16.71;100.00
34712;BME280;20941;42.408;25.634;2022-11-20T05:53:35;99028.31;;;16.61;100.00
34712;BME280;20941;42.408;25.634;2022-11-20T05:56:04;99032.72;;;16.75;100.00
34712;BME280;20941;42.408;25.634;2022-11-20T05:58:31;99055.81;;;16.89;100.00
34712;BME280;20941;42.408;25.634;2022-11-20T06:01:20;99054.28;;;16.92;100.00
34712;BME280;20941;42.408;25.634;2022-11-20T06:03:47;99047.38;;;16.77;100.00
34712;BME280;20941;42.408;25.634;2022-11-20T06:06:14;99068.75;;;16.87;100.00
34712;BME280;20941;42.408;25.634;2022-11-20T06:08:40;99050.13;;;16.73;100.00
34712;BME280;20941;42.408;25.634;2022-11-20T06:11:08;99071.94;;;16.85;100.00
34712;BME280;20941;42.408;25.634;2022-11-20T06:13:34;99072.03;;;16.89;100.00
34712;BME280;20941;42.408;25.634;2022-11-20T06:16:00;99053.16;;;16.80;100.00
34712;BME280;20941;42.408;25.634;2022-11-20T06:18:27;99068.97;;;16.94;100.00
34712;BME280;20941;42.408;25.634;2022-11-20T06:21:00;99067.31;;;16.93;100.00
34712;BME280;20941;42.408;25.634;2022-11-20T06:23:28;99065.69;;;16.79;100.00
34712;BME280;20941;42.408;25.634;2022-11-20T06:25:54;99057.66;;;16.81;100.00
34712;BME280;20941;42.408;25.634;2022-11-20T06:28:19;99065.44;;;16.84;100.00
34712;BME280;20941;42.408;25.634;2022-11-20T06:30:45;99077.25;;;16.87;100.00
34712;BME280;20941;42.408;25.634;2022-11-20T06:33:11;99089.22;;;16.92;100.00
34712;BME280;20941;42.408;25.634;2022-11-20T06:35:36;99077.72;;;16.89;100.00
34712;BME280;20941;42.408;25.634;2022-11-20T06:38:02;99062.78;;;16.76;100.00
34712;BME280;20941;42.408;25.634;2022-11-20T06:40:27;99092.28;;;16.87;100.00
34712;BME280;20941;42.408;25.634;2022-11-20T06:42:54;99097.84;;;16.96;100.00
34712;BME280;20941;42.408;25.634;2022-11-20T06:45:20;99107.63;;;16.98;100.00
34712;BME280;20941;42.408;25.634;2022-11-20T06:47:45;99110.09;;;17.00;100.00
34712;BME280;20941;42.408;25.634;2022-11-20T06:50:11;99110.38;;;16.95;100.00
34712;BME280;20941;42.408;25.634;2022-11-20T06:52:36;99111.19;;;16.95;100.00
34712;BME280;20941;42.408;25.634;2022-11-20T06:55:02;99101.38;;;16.93;100.00
34712;BME280;20941;42.408;25.634;2022-11-20T06:57:28;99106.50;;;17.03;100.00
34712;BME280;20941;42.408;25.634;2022-11-20T06:59:53;99115.22;;;17.10;100.00
34712;BME280;20941;42.408;25.634;2022-11-20T07:02:19;99040.06;;;16.76;100.00
34712;BME280;20941;42.408;25.634;2022-11-20T07:04:44;99116.06;;;17.27;100.00
34712;BME280;20941;42.408;25.634;2022-11-20T07:07:10;99109.63;;;17.30;100.00
34712;BME280;20941;42.408;25.634;2022-11-20T07:09:35;99088.91;;;17.45;100.00
34712;BME280;20941;42.408;25.634;2022-11-20T07:12:01;99104.41;;;17.48;100.00
34712;BME280;20941;42.408;25.634;2022-11-20T07:14:26;99113.91;;;17.72;100.00
34712;BME280;20941;42.408;25.634;2022-11-20T07:16:55;99109.47;;;17.90;100.00
34712;BME280;20941;42.408;25.634;2022-11-20T07:19:20;99127.13;;;18.16;99.77
34712;BME280;20941;42.408;25.634;2022-11-20T07:21:46;99111.16;;;18.31;98.16
34712;BME280;20941;42.408;25.634;2022-11-20T07:24:11;99109.75;;;18.40;96.80
34712;BME280;20941;42.408;25.634;2022-11-20T07:26:37;99069.22;;;18.27;95.91
34712;BME280;20941;42.408;25.634;2022-11-20T07:29:02;99101.97;;;18.57;95.15
34712;BME280;20941;42.408;25.634;2022-11-20T07:31:28;99104.41;;;18.58;94.81
34712;BME280;20941;42.408;25.634;2022-11-20T07:33:54;99098.66;;;18.55;95.26
34712;BME280;20941;42.408;25.634;2022-11-20T07:36:19;99093.56;;;18.44;95.16
34712;BME280;20941;42.408;25.634;2022-11-20T07:38:45;99110.97;;;18.59;94.89
34712;BME280;20941;42.408;25.634;2022-11-20T07:41:10;99110.56;;;18.60;94.59
34712;BME280;20941;42.408;25.634;2022-11-20T07:43:36;99098.66;;;18.55;94.13
34712;BME280;20941;42.408;25.634;2022-11-20T07:46:01;99100.44;;;18.63;93.97
34712;BME280;20941;42.408;25.634;2022-11-20T07:48:27;99106.53;;;18.62;94.43
34712;BME280;20941;42.408;25.634;2022-11-20T07:50:56;99102.53;;;18.66;94.09
34712;BME280;20941;42.408;25.634;2022-11-20T07:53:22;99109.53;;;18.69;94.41
34712;BME280;20941;42.408;25.634;2022-11-20T07:55:48;99108.09;;;18.59;94.11
34712;BME280;20941;42.408;25.634;2022-11-20T07:58:13;99090.47;;;18.73;93.58
34712;BME280;20941;42.408;25.634;2022-11-20T08:00:40;99103.94;;;18.76;92.92
34712;BME280;20941;42.408;25.634;2022-11-20T08:03:05;99102.66;;;18.93;92.20
34712;BME280;20941;42.408;25.634;2022-11-20T08:05:31;99105.31;;;19.05;91.78
34712;BME280;20941;42.408;25.634;2022-11-20T08:07:57;99056.09;;;18.85;90.77
34712;BME280;20941;42.408;25.634;2022-11-20T08:10:23;99104.06;;;19.26;89.67
34712;BME280;20941;42.408;25.634;2022-11-20T08:12:50;99084.88;;;19.23;88.69
34712;BME280;20941;42.408;25.634;2022-11-20T08:15:35;99104.44;;;19.48;86.45
34712;BME280;20941;42.408;25.634;2022-11-20T08:18:03;99102.34;;;19.71;86.22
34712;BME280;20941;42.408;25.634;2022-11-20T08:20:29;99091.88;;;19.79;85.04
34712;BME280;20941;42.408;25.634;2022-11-20T08:23:02;99106.13;;;20.02;83.93
34712;BME280;20941;42.408;25.634;2022-11-20T08:25:31;99094.00;;;20.13;83.51
34712;BME280;20941;42.408;25.634;2022-11-20T08:28:03;99094.25;;;20.31;82.81
34712;BME280;20941;42.408;25.634;2022-11-20T08:30:29;99101.63;;;20.32;81.74
34712;BME280;20941;42.408;25.634;2022-11-20T08:33:03;99108.00;;;20.22;82.68
34712;BME280;20941;42.408;25.634;2022-11-20T08:35:32;99081.09;;;20.23;81.70
34712;BME280;20941;42.408;25.634;2022-11-20T08:37:58;99061.91;;;20.23;80.68
34712;BME280;20941;42.408;25.634;2022-11-20T08:40:23;99088.03;;;20.56;80.03
34712;BME280;20941;42.408;25.634;2022-11-20T08:42:50;99074.31;;;20.34;79.85
34712;BME280;20941;42.408;25.634;2022-11-20T08:45:17;99102.66;;;20.50;80.06
34712;BME280;20941;42.408;25.634;2022-11-20T08:47:43;99090.47;;;20.57;78.80
34712;BME280;20941;42.408;25.634;2022-11-20T08:50:10;99102.00;;;20.64;78.39
34712;BME280;20941;42.408;25.634;2022-11-20T08:52:36;99098.38;;;20.67;79.10
34712;BME280;20941;42.408;25.634;2022-11-20T08:55:03;99091.13;;;20.74;78.41
34712;BME280;20941;42.408;25.634;2022-11-20T08:57:31;99083.44;;;20.81;77.32
34712;BME280;20941;42.408;25.634;2022-11-20T08:59:57;99070.84;;;20.86;78.41
34712;BME280;20941;42.408;25.634;2022-11-20T09:02:22;99063.81;;;20.80;78.20
34712;BME280;20941;42.408;25.634;2022-11-20T09:04:48;99049.19;;;20.85;77.59
34712;BME280;20941;42.408;25.634;2022-11-20T09:07:13;99029.19;;;20.85;77.96
34712;BME280;20941;42.408;25.634;2022-11-20T09:09:39;99040.22;;;20.87;76.06
34712;BME280;20941;42.408;25.634;2022-11-20T09:12:04;99027.03;;;20.75;76.28
34712;BME280;20941;42.408;25.634;2022-11-20T09:17:14;99043.75;;;20.73;76.82
34712;BME280;20941;42.408;25.634;2022-11-20T09:19:40;99034.38;;;20.76;75.77
34712;BME280;20941;42.408;25.634;2022-11-20T09:22:05;99031.56;;;20.79;75.91
34712;BME280;20941;42.408;25.634;2022-11-20T09:24:31;99031.22;;;20.84;76.18
34712;BME280;20941;42.408;25.634;2022-11-20T09:26:56;99029.63;;;20.87;75.76
34712;BME280;20941;42.408;25.634;2022-11-20T09:29:22;99014.81;;;20.78;76.10
34712;BME280;20941;42.408;25.634;2022-11-20T09:31:47;99024.59;;;20.77;75.65
34712;BME280;20941;42.408;25.634;2022-11-20T09:34:13;98995.44;;;20.60;76.66
34712;BME280;20941;42.408;25.634;2022-11-20T09:36:38;99023.53;;;20.92;76.60
34712;BME280;20941;42.408;25.634;2022-11-20T09:39:04;99010.41;;;20.88;76.40
34712;BME280;20941;42.408;25.634;2022-11-20T09:44:40;99017.06;;;21.03;75.71
34712;BME280;20941;42.408;25.634;2022-11-20T09:50:02;99001.44;;;20.89;75.35
34712;BME280;20941;42.408;25.634;2022-11-20T09:55:19;98994.50;;;20.90;75.66
34712;BME280;20941;42.408;25.634;2022-11-20T09:57:47;98970.47;;;20.95;75.49
34712;BME280;20941;42.408;25.634;2022-11-20T10:00:14;98984.88;;;21.09;75.04
34712;BME280;20941;42.408;25.634;2022-11-20T10:02:44;98979.97;;;21.10;75.06
34712;BME280;20941;42.408;25.634;2022-11-20T10:05:24;98972.59;;;21.05;75.76
34712;BME280;20941;42.408;25.634;2022-11-20T10:10:43;98979.97;;;21.10;76.01
34712;BME280;20941;42.408;25.634;2022-11-20T10:27:22;98950.00;;;20.89;77.11
34712;BME280;20941;42.408;25.634;2022-11-20T10:30:06;98941.44;;;20.89;76.80
34712;BME280;20941;42.408;25.634;2022-11-20T10:32:59;98932.69;;;20.71;76.68
34712;BME280;20941;42.408;25.634;2022-11-20T10:35:50;98934.63;;;20.60;77.09
34712;BME280;20941;42.408;25.634;2022-11-20T10:38:25;98938.28;;;20.57;77.49
34712;BME280;20941;42.408;25.634;2022-11-20T10:41:01;98909.53;;;20.39;76.96
34712;BME280;20941;42.408;25.634;2022-11-20T10:43:46;98945.00;;;20.38;77.20
34712;BME280;20941;42.408;25.634;2022-11-20T10:46:20;98922.81;;;20.20;77.48
34712;BME280;20941;42.408;25.634;2022-11-20T10:48:50;98922.06;;;20.27;78.07
34712;BME280;20941;42.408;25.634;2022-11-20T10:56:50;98908.69;;;20.34;77.10
34712;BME280;20941;42.408;25.634;2022-11-20T11:02:21;98918.63;;;20.48;76.79
34712;BME280;20941;42.408;25.634;2022-11-20T11:04:50;98918.94;;;20.43;76.18
34712;BME280;20941;42.408;25.634;2022-11-20T11:07:29;98914.97;;;20.51;76.05
34712;BME280;20941;42.408;25.634;2022-11-20T11:09:56;98906.75;;;20.46;74.60
34712;BME280;20941;42.408;25.634;2022-11-20T11:12:25;98926.81;;;20.53;74.62
34712;BME280;20941;42.408;25.634;2022-11-20T11:14:53;98906.84;;;20.57;73.77
34712;BME280;20941;42.408;25.634;2022-11-20T11:17:26;98916.81;;;20.74;73.33
34712;BME280;20941;42.408;25.634;2022-11-20T11:20:22;98914.38;;;20.76;72.50
34712;BME280;20941;42.408;25.634;2022-11-20T11:22:56;98917.72;;;20.85;71.76
34712;BME280;20941;42.408;25.634;2022-11-20T11:27:50;98912.97;;;21.07;71.01
34712;BME280;20941;42.408;25.634;2022-11-20T11:30:19;98888.81;;;20.97;70.87
34712;BME280;20941;42.408;25.634;2022-11-20T11:32:46;98885.31;;;21.22;70.45
34712;BME280;20941;42.408;25.634;2022-11-20T11:35:32;98877.09;;;21.13;69.88
34712;BME280;20941;42.408;25.634;2022-11-20T11:38:07;98861.56;;;21.11;70.51
34712;BME280;20941;42.408;25.634;2022-11-20T11:40:37;98858.19;;;20.94;70.83
34712;BME280;20941;42.408;25.634;2022-11-20T11:43:06;98850.00;;;20.93;71.12
34712;BME280;20941;42.408;25.634;2022-11-20T11:45:53;98840.19;;;20.90;70.92
34712;BME280;20941;42.408;25.634;2022-11-20T11:48:20;98819.59;;;20.66;71.33
34712;BME280;20941;42.408;25.634;2022-11-20T11:50:50;98817.91;;;20.58;71.52
34712;BME280;20941;42.408;25.634;2022-11-20T11:53:21;98835.13;;;20.69;71.62
34712;BME280;20941;42.408;25.634;2022-11-20T11:58:48;98838.72;;;20.55;72.37
34712;BME280;20941;42.408;25.634;2022-11-20T12:01:38;98850.97;;;20.59;72.65
34712;BME280;20941;42.408;25.634;2022-11-20T12:04:15;98846.84;;;20.53;73.01
34712;BME280;20941;42.408;25.634;2022-11-20T12:06:43;98849.81;;;20.67;72.83
34712;BME280;20941;42.408;25.634;2022-11-20T12:09:11;98849.50;;;20.76;72.42
34712;BME280;20941;42.408;25.634;2022-11-20T12:11:58;98849.09;;;20.78;72.63
34712;BME280;20941;42.408;25.634;2022-11-20T12:14:37;98849.91;;;20.78;72.07
34712;BME280;20941;42.408;25.634;2022-11-20T12:17:03;98833.47;;;20.68;72.20
34712;BME280;20941;42.408;25.634;2022-11-20T12:19:34;98849.31;;;20.58;72.54
34712;BME280;20941;42.408;25.634;2022-11-20T12:25:09;98837.84;;;20.51;72.31
34712;BME280;20941;42.408;25.634;2022-11-20T12:28:10;98851.72;;;20.52;72.95
34712;BME280;20941;42.408;25.634;2022-11-20T12:55:47;98843.19;;;20.56;74.21
34712;BME280;20941;42.408;25.634;2022-11-20T13:00:50;98843.13;;;20.49;74.29
34712;BME280;20941;42.408;25.634;2022-11-20T13:03:38;98819.75;;;20.32;74.40
34712;BME280;20941;42.408;25.634;2022-11-20T13:06:18;98848.03;;;20.48;73.76
34712;BME280;20941;42.408;25.634;2022-11-20T13:08:52;98834.94;;;20.44;72.77
34712;BME280;20941;42.408;25.634;2022-11-20T13:19:14;98848.72;;;20.83;73.52
34712;BME280;20941;42.408;25.634;2022-11-20T13:21:46;98840.09;;;20.76;73.99
34712;BME280;20941;42.408;25.634;2022-11-20T13:24:22;98849.09;;;20.78;73.96
34712;BME280;20941;42.408;25.634;2022-11-20T13:27:02;98846.22;;;20.78;72.90
34712;BME280;20941;42.408;25.634;2022-11-20T13:29:28;98824.06;;;20.60;71.50
34712;BME280;20941;42.408;25.634;2022-11-20T13:32:04;98835.88;;;20.62;71.80
34712;BME280;20941;42.408;25.634;2022-11-20T13:34:30;98849.91;;;20.75;71.83
34712;BME280;20941;42.408;25.634;2022-11-20T13:36:58;98841.66;;;20.69;71.75
34712;BME280;20941;42.408;25.634;2022-11-20T13:39:36;98843.28;;;20.71;71.81
34712;BME280;20941;42.408;25.634;2022-11-20T13:44:39;98855.19;;;20.73;71.08
34712;BME280;20941;42.408;25.634;2022-11-20T13:47:21;98850.53;;;20.57;70.67
34712;BME280;20941;42.408;25.634;2022-11-20T13:49:47;98834.53;;;20.42;71.37
34712;BME280;20941;42.408;25.634;2022-11-20T13:57:56;98844.56;;;20.25;72.15
34712;BME280;20941;42.408;25.634;2022-11-20T14:00:25;98833.13;;;20.21;72.25
34712;BME280;20941;42.408;25.634;2022-11-20T14:05:56;98830.28;;;20.25;71.90
34712;BME280;20941;42.408;25.634;2022-11-20T14:08:33;98809.41;;;20.17;71.64
34712;BME280;20941;42.408;25.634;2022-11-20T14:11:11;98814.31;;;20.16;71.37
34712;BME280;20941;42.408;25.634;2022-11-20T14:13:39;98823.75;;;20.24;71.84
34712;BME280;20941;42.408;25.634;2022-11-20T14:16:04;98837.66;;;20.29;72.07
34712;BME280;20941;42.408;25.634;2022-11-20T14:18:30;98818.38;;;20.15;72.31
34712;BME280;20941;42.408;25.634;2022-11-20T14:20:55;98838.84;;;20.25;72.08
34712;BME280;20941;42.408;25.634;2022-11-20T14:23:26;98828.81;;;19.97;72.90
34712;BME280;20941;42.408;25.634;2022-11-20T14:25:52;98839.97;;;20.13;72.86
34712;BME280;20941;42.408;25.634;2022-11-20T14:28:26;98819.91;;;20.06;73.17
34712;BME280;20941;42.408;25.634;2022-11-20T14:30:53;98832.25;;;20.17;73.06
34712;BME280;20941;42.408;25.634;2022-11-20T14:33:20;98801.00;;;19.90;73.22